sensor_id;sensor_type;location;lat;lon;timestamp;pressure;altitude;pressure_sealevel;temperature;humidity
73952;BME280;62304;47.662;18.324;2022-11-06T00:01:13;100394.25;;;10.71;78.48
73952;BME280;62304;47.662;18.324;2022-11-06T00:04:17;100398.16;;;10.70;78.88
73952;BME280;62304;47.662;18.324;2022-11-06T00:07:20;100388.81;;;10.78;78.58
73952;BME280;62304;47.662;18.324;2022-11-06T00:10:23;100390.47;;;10.83;78.34
73952;BME280;62304;47.662;18.324;2022-11-06T00:13:25;100384.56;;;10.84;78.20
73952;BME280;62304;47.662;18.324;2022-11-06T00:16:28;100381.53;;;10.70;78.83
73952;BME280;62304;47.662;18.324;2022-11-06T00:19:31;100389.53;;;10.75;78.54
73952;BME280;62304;47.662;18.324;2022-11-06T00:22:35;100386.28;;;10.70;78.31
73952;BME280;62304;47.662;18.324;2022-11-06T00:25:39;100386.09;;;10.59;78.67
73952;BME280;62304;47.662;18.324;2022-11-06T00:28:43;100394.38;;;10.78;78.30
73952;BME280;62304;47.662;18.324;2022-11-06T00:31:48;100393.25;;;10.83;78.15
73952;BME280;62304;47.662;18.324;2022-11-06T00:34:51;100401.81;;;10.74;78.25
73952;BME280;62304;47.662;18.324;2022-11-06T00:37:54;100400.78;;;10.82;78.20
73952;BME280;62304;47.662;18.324;2022-11-06T00:41:03;100402.81;;;10.85;78.16
73952;BME280;62304;47.662;18.324;2022-11-06T00:44:08;100402.31;;;10.80;78.30
73952;BME280;62304;47.662;18.324;2022-11-06T00:47:11;100416.87;;;10.96;78.14
73952;BME280;62304;47.662;18.324;2022-11-06T00:50:13;100412.06;;;10.93;78.17
73952;BME280;62304;47.662;18.324;2022-11-06T00:53:17;100404.84;;;10.88;78.26
73952;BME280;62304;47.662;18.324;2022-11-06T00:56:21;100410.41;;;10.88;78.14
73952;BME280;62304;47.662;18.324;2022-11-06T00:59:24;100414.34;;;10.87;78.51
73952;BME280;62304;47.662;18.324;2022-11-06T01:02:27;100408.72;;;10.84;78.42
73952;BME280;62304;47.662;18.324;2022-11-06T01:05:31;100407.31;;;10.93;77.87
73952;BME280;62304;47.662;18.324;2022-11-06T01:08:34;100399.28;;;10.88;78.10
73952;BME280;62304;47.662;18.324;2022-11-06T01:11:40;100397.56;;;10.80;78.19
73952;BME280;62304;47.662;18.324;2022-11-06T01:15:03;100391.28;;;10.83;78.39
73952;BME280;62304;47.662;18.324;2022-11-06T01:18:06;100399.09;;;10.78;78.47
73952;BME280;62304;47.662;18.324;2022-11-06T01:21:12;100400.63;;;10.75;78.98
73952;BME280;62304;47.662;18.324;2022-11-06T01:24:21;100395.09;;;10.75;78.76
73952;BME280;62304;47.662;18.324;2022-11-06T01:27:24;100394.97;;;10.68;79.00
73952;BME280;62304;47.662;18.324;2022-11-06T01:30:29;100395.09;;;10.53;79.85
73952;BME280;62304;47.662;18.324;2022-11-06T01:33:32;100394.59;;;10.47;79.96
73952;BME280;62304;47.662;18.324;2022-11-06T01:36:35;100404.94;;;10.50;80.16
73952;BME280;62304;47.662;18.324;2022-11-06T01:39:38;100395.09;;;10.75;79.54
73952;BME280;62304;47.662;18.324;2022-11-06T01:42:43;100398.94;;;10.67;79.43
73952;BME280;62304;47.662;18.324;2022-11-06T01:45:53;100402.94;;;10.70;79.49
73952;BME280;62304;47.662;18.324;2022-11-06T01:49:04;100404.53;;;10.71;79.58
73952;BME280;62304;47.662;18.324;2022-11-06T01:52:10;100401.34;;;10.69;79.55
73952;BME280;62304;47.662;18.324;2022-11-06T01:55:22;100402.38;;;10.61;79.75
73952;BME280;62304;47.662;18.324;2022-11-06T01:58:27;100402.72;;;10.59;79.72
73952;BME280;62304;47.662;18.324;2022-11-06T02:01:32;100401.69;;;10.67;79.52
73952;BME280;62304;47.662;18.324;2022-11-06T02:04:37;100396.87;;;10.64;80.07
73952;BME280;62304;47.662;18.324;2022-11-06T02:07:42;100405.41;;;10.75;79.04
73952;BME280;62304;47.662;18.324;2022-11-06T02:10:46;100407.06;;;10.79;78.96
73952;BME280;62304;47.662;18.324;2022-11-06T02:14:08;100409.34;;;10.74;79.63
73952;BME280;62304;47.662;18.324;2022-11-06T02:27:17;100413.41;;;10.80;79.05
73952;BME280;62304;47.662;18.324;2022-11-06T02:30:21;100416.66;;;10.85;78.89
73952;BME280;62304;47.662;18.324;2022-11-06T02:33:34;100425.97;;;10.96;78.73
73952;BME280;62304;47.662;18.324;2022-11-06T02:36:49;100428.34;;;10.94;78.66
73952;BME280;62304;47.662;18.324;2022-11-06T02:39:56;100433.78;;;10.87;79.56
73952;BME280;62304;47.662;18.324;2022-11-06T02:43:04;100429.81;;;10.88;79.17
73952;BME280;62304;47.662;18.324;2022-11-06T02:46:15;100433.44;;;10.92;79.24
73952;BME280;62304;47.662;18.324;2022-11-06T02:53:08;100427.03;;;10.88;79.24
73952;BME280;62304;47.662;18.324;2022-11-06T02:56:24;100428.31;;;10.72;80.51
73952;BME280;62304;47.662;18.324;2022-11-06T03:02:59;100430.72;;;10.73;79.84
73952;BME280;62304;47.662;18.324;2022-11-06T03:06:16;100443.91;;;10.57;80.61
73952;BME280;62304;47.662;18.324;2022-11-06T03:09:26;100438.94;;;10.47;81.13
73952;BME280;62304;47.662;18.324;2022-11-06T03:12:44;100445.19;;;10.41;81.64
73952;BME280;62304;47.662;18.324;2022-11-06T03:16:22;100442.91;;;10.46;81.10
73952;BME280;62304;47.662;18.324;2022-11-06T03:19:34;100447.44;;;10.35;81.25
73952;BME280;62304;47.662;18.324;2022-11-06T03:22:41;100450.63;;;10.37;81.80
73952;BME280;62304;47.662;18.324;2022-11-06T03:25:59;100449.31;;;10.31;81.71
73952;BME280;62304;47.662;18.324;2022-11-06T03:38:26;100461.75;;;10.18;82.10
73952;BME280;62304;47.662;18.324;2022-11-06T03:41:51;100470.94;;;10.22;82.29
73952;BME280;62304;47.662;18.324;2022-11-06T03:44:58;100464.00;;;10.13;82.29
73952;BME280;62304;47.662;18.324;2022-11-06T03:48:08;100471.16;;;10.14;82.50
73952;BME280;62304;47.662;18.324;2022-11-06T03:51:24;100469.97;;;10.15;82.43
73952;BME280;62304;47.662;18.324;2022-11-06T03:54:45;100476.47;;;10.22;82.41
73952;BME280;62304;47.662;18.324;2022-11-06T03:57:57;100473.50;;;10.31;81.74
73952;BME280;62304;47.662;18.324;2022-11-06T04:01:03;100478.38;;;10.18;82.41
73952;BME280;62304;47.662;18.324;2022-11-06T04:04:20;100475.03;;;10.28;82.04
73952;BME280;62304;47.662;18.324;2022-11-06T04:07:29;100480.78;;;10.39;81.85
73952;BME280;62304;47.662;18.324;2022-11-06T04:10:36;100478.69;;;10.32;81.89
73952;BME280;62304;47.662;18.324;2022-11-06T04:14:00;100487.19;;;10.43;82.11
73952;BME280;62304;47.662;18.324;2022-11-06T04:17:09;100501.72;;;10.36;82.58
73952;BME280;62304;47.662;18.324;2022-11-06T04:20:21;100485.72;;;10.49;82.17
73952;BME280;62304;47.662;18.324;2022-11-06T04:34:44;100502.00;;;10.50;82.48
73952;BME280;62304;47.662;18.324;2022-11-06T04:41:35;100492.94;;;10.53;82.22
73952;BME280;62304;47.662;18.324;2022-11-06T04:44:45;100498.00;;;10.48;82.61
73952;BME280;62304;47.662;18.324;2022-11-06T04:47:51;100492.88;;;10.50;82.58
73952;BME280;62304;47.662;18.324;2022-11-06T04:50:59;100489.44;;;10.56;81.83
73952;BME280;62304;47.662;18.324;2022-11-06T04:54:04;100495.78;;;10.76;80.79
73952;BME280;62304;47.662;18.324;2022-11-06T04:57:09;100494.84;;;10.68;81.02
73952;BME280;62304;47.662;18.324;2022-11-06T05:00:13;100493.94;;;10.64;81.17
73952;BME280;62304;47.662;18.324;2022-11-06T05:03:17;100499.50;;;10.64;80.68
73952;BME280;62304;47.662;18.324;2022-11-06T05:06:20;100507.34;;;10.59;80.92
73952;BME280;62304;47.662;18.324;2022-11-06T05:09:31;100496.97;;;10.56;80.80
73952;BME280;62304;47.662;18.324;2022-11-06T05:12:35;100513.69;;;10.40;81.50
73952;BME280;62304;47.662;18.324;2022-11-06T05:15:38;100503.84;;;10.43;81.37
73952;BME280;62304;47.662;18.324;2022-11-06T05:18:40;100503.16;;;10.30;81.44
73952;BME280;62304;47.662;18.324;2022-11-06T05:21:46;100507.53;;;10.31;81.56
73952;BME280;62304;47.662;18.324;2022-11-06T05:25:07;100505.28;;;10.18;81.81
73952;BME280;62304;47.662;18.324;2022-11-06T05:28:10;100503.88;;;10.08;81.81
73952;BME280;62304;47.662;18.324;2022-11-06T05:31:13;100502.28;;;10.07;81.82
73952;BME280;62304;47.662;18.324;2022-11-06T05:34:16;100508.72;;;10.11;81.45
73952;BME280;62304;47.662;18.324;2022-11-06T05:37:18;100501.66;;;10.14;81.17
73952;BME280;62304;47.662;18.324;2022-11-06T05:40:21;100508.53;;;10.04;81.47
73952;BME280;62304;47.662;18.324;2022-11-06T05:43:24;100505.88;;;9.92;81.68
73952;BME280;62304;47.662;18.324;2022-11-06T05:46:27;100507.13;;;9.95;81.66
73952;BME280;62304;47.662;18.324;2022-11-06T05:49:49;100515.00;;;9.93;81.94
73952;BME280;62304;47.662;18.324;2022-11-06T05:52:52;100518.03;;;9.88;82.01
73952;BME280;62304;47.662;18.324;2022-11-06T05:55:55;100522.22;;;9.97;81.76
73952;BME280;62304;47.662;18.324;2022-11-06T05:58:58;100525.06;;;10.01;81.48
73952;BME280;62304;47.662;18.324;2022-11-06T06:02:00;100528.50;;;9.94;81.59
73952;BME280;62304;47.662;18.324;2022-11-06T06:05:05;100530.44;;;9.94;81.51
73952;BME280;62304;47.662;18.324;2022-11-06T06:08:08;100544.66;;;9.92;81.79
73952;BME280;62304;47.662;18.324;2022-11-06T06:11:11;100546.44;;;9.85;81.95
73952;BME280;62304;47.662;18.324;2022-11-06T06:14:14;100549.06;;;9.78;82.36
73952;BME280;62304;47.662;18.324;2022-11-06T06:17:17;100559.78;;;9.79;82.46
73952;BME280;62304;47.662;18.324;2022-11-06T06:20:20;100560.16;;;9.78;82.17
73952;BME280;62304;47.662;18.324;2022-11-06T06:23:24;100567.03;;;9.68;82.27
73952;BME280;62304;47.662;18.324;2022-11-06T06:26:27;100570.50;;;9.65;82.64
73952;BME280;62304;47.662;18.324;2022-11-06T06:29:30;100569.56;;;9.58;82.65
73952;BME280;62304;47.662;18.324;2022-11-06T06:32:32;100571.06;;;9.55;82.84
73952;BME280;62304;47.662;18.324;2022-11-06T06:35:35;100576.88;;;9.50;83.20
73952;BME280;62304;47.662;18.324;2022-11-06T06:38:39;100580.44;;;9.51;82.80
73952;BME280;62304;47.662;18.324;2022-11-06T06:41:43;100590.81;;;9.54;82.90
73952;BME280;62304;47.662;18.324;2022-11-06T06:44:45;100585.63;;;9.52;83.08
73952;BME280;62304;47.662;18.324;2022-11-06T06:47:49;100600.72;;;9.55;82.55
73952;BME280;62304;47.662;18.324;2022-11-06T06:50:55;100600.63;;;9.51;82.58
73952;BME280;62304;47.662;18.324;2022-11-06T06:53:58;100603.13;;;9.56;82.71
73952;BME280;62304;47.662;18.324;2022-11-06T06:57:01;100599.63;;;9.59;82.67
73952;BME280;62304;47.662;18.324;2022-11-06T07:00:05;100601.97;;;9.57;82.37
73952;BME280;62304;47.662;18.324;2022-11-06T07:03:08;100599.19;;;9.57;82.54
73952;BME280;62304;47.662;18.324;2022-11-06T07:06:11;100595.88;;;9.52;82.61
73952;BME280;62304;47.662;18.324;2022-11-06T07:09:15;100591.97;;;9.53;82.72
73952;BME280;62304;47.662;18.324;2022-11-06T07:12:18;100600.03;;;9.58;82.34
73952;BME280;62304;47.662;18.324;2022-11-06T07:15:21;100595.63;;;9.57;82.75
73952;BME280;62304;47.662;18.324;2022-11-06T07:18:24;100609.13;;;9.58;83.08
73952;BME280;62304;47.662;18.324;2022-11-06T07:21:26;100602.87;;;9.61;82.67
73952;BME280;62304;47.662;18.324;2022-11-06T07:24:29;100606.25;;;9.55;82.46
73952;BME280;62304;47.662;18.324;2022-11-06T07:27:32;100614.47;;;9.67;82.60
73952;BME280;62304;47.662;18.324;2022-11-06T07:30:35;100621.09;;;9.62;82.21
73952;BME280;62304;47.662;18.324;2022-11-06T07:33:38;100608.22;;;9.70;82.09
73952;BME280;62304;47.662;18.324;2022-11-06T07:36:41;100620.09;;;9.70;81.87
73952;BME280;62304;47.662;18.324;2022-11-06T07:39:44;100616.81;;;9.65;81.81
73952;BME280;62304;47.662;18.324;2022-11-06T07:42:48;100626.81;;;9.69;82.02
73952;BME280;62304;47.662;18.324;2022-11-06T07:45:51;100619.41;;;9.73;82.01
73952;BME280;62304;47.662;18.324;2022-11-06T07:48:53;100620.28;;;9.77;82.32
73952;BME280;62304;47.662;18.324;2022-11-06T07:51:56;100619.47;;;9.77;81.81
73952;BME280;62304;47.662;18.324;2022-11-06T07:54:59;100616.78;;;9.80;81.52
73952;BME280;62304;47.662;18.324;2022-11-06T07:58:02;100612.16;;;9.84;81.02
73952;BME280;62304;47.662;18.324;2022-11-06T08:01:05;100616.97;;;9.87;80.83
73952;BME280;62304;47.662;18.324;2022-11-06T08:04:10;100615.28;;;9.83;80.94
73952;BME280;62304;47.662;18.324;2022-11-06T08:07:13;100614.19;;;9.87;80.66
73952;BME280;62304;47.662;18.324;2022-11-06T08:10:16;100612.31;;;9.91;80.59
73952;BME280;62304;47.662;18.324;2022-11-06T08:13:19;100610.28;;;9.88;80.48
73952;BME280;62304;47.662;18.324;2022-11-06T08:16:22;100615.00;;;9.88;80.70
73952;BME280;62304;47.662;18.324;2022-11-06T08:19:25;100615.53;;;9.93;80.72
73952;BME280;62304;47.662;18.324;2022-11-06T08:22:28;100623.56;;;9.98;80.77
73952;BME280;62304;47.662;18.324;2022-11-06T08:25:31;100619.38;;;10.04;80.19
73952;BME280;62304;47.662;18.324;2022-11-06T08:28:34;100619.84;;;10.06;80.06
73952;BME280;62304;47.662;18.324;2022-11-06T08:31:37;100619.09;;;10.09;80.23
73952;BME280;62304;47.662;18.324;2022-11-06T08:34:40;100616.44;;;10.13;80.82
73952;BME280;62304;47.662;18.324;2022-11-06T08:37:43;100606.22;;;10.17;80.42
73952;BME280;62304;47.662;18.324;2022-11-06T08:40:46;100616.69;;;10.23;80.07
73952;BME280;62304;47.662;18.324;2022-11-06T08:43:54;100614.53;;;10.32;79.21
73952;BME280;62304;47.662;18.324;2022-11-06T08:46:57;100610.59;;;10.33;79.06
73952;BME280;62304;47.662;18.324;2022-11-06T08:50:00;100611.53;;;10.41;79.25
73952;BME280;62304;47.662;18.324;2022-11-06T08:53:04;100609.06;;;10.36;78.29
73952;BME280;62304;47.662;18.324;2022-11-06T08:56:07;100608.78;;;10.41;79.19
73952;BME280;62304;47.662;18.324;2022-11-06T08:59:10;100608.47;;;10.46;78.64
73952;BME280;62304;47.662;18.324;2022-11-06T09:02:13;100604.41;;;10.59;78.38
73952;BME280;62304;47.662;18.324;2022-11-06T09:05:17;100603.88;;;10.53;78.16
73952;BME280;62304;47.662;18.324;2022-11-06T09:08:19;100606.22;;;10.51;78.29
73952;BME280;62304;47.662;18.324;2022-11-06T09:11:22;100606.28;;;10.55;78.29
73952;BME280;62304;47.662;18.324;2022-11-06T09:14:25;100616.06;;;10.68;77.62
73952;BME280;62304;47.662;18.324;2022-11-06T09:17:28;100611.75;;;10.70;77.62
73952;BME280;62304;47.662;18.324;2022-11-06T09:20:31;100609.00;;;10.70;77.33
73952;BME280;62304;47.662;18.324;2022-11-06T09:23:36;100606.06;;;10.63;76.84
73952;BME280;62304;47.662;18.324;2022-11-06T09:26:39;100603.53;;;10.74;77.51
73952;BME280;62304;47.662;18.324;2022-11-06T09:29:42;100597.59;;;10.75;77.58
73952;BME280;62304;47.662;18.324;2022-11-06T09:32:53;100598.19;;;10.84;77.35
73952;BME280;62304;47.662;18.324;2022-11-06T09:35:56;100600.59;;;11.05;77.04
73952;BME280;62304;47.662;18.324;2022-11-06T09:38:59;100597.94;;;11.12;76.02
73952;BME280;62304;47.662;18.324;2022-11-06T09:42:07;100600.50;;;11.20;76.03
73952;BME280;62304;47.662;18.324;2022-11-06T09:45:16;100594.62;;;11.25;75.29
73952;BME280;62304;47.662;18.324;2022-11-06T09:48:40;100595.50;;;11.29;75.76
73952;BME280;62304;47.662;18.324;2022-11-06T09:51:56;100599.41;;;11.47;74.89
73952;BME280;62304;47.662;18.324;2022-11-06T09:55:04;100608.44;;;11.63;74.91
73952;BME280;62304;47.662;18.324;2022-11-06T09:58:21;100611.50;;;11.58;74.81
73952;BME280;62304;47.662;18.324;2022-11-06T10:01:45;100608.91;;;11.65;74.31
73952;BME280;62304;47.662;18.324;2022-11-06T10:08:28;100604.62;;;11.71;74.34
73952;BME280;62304;47.662;18.324;2022-11-06T10:28:01;100580.91;;;11.77;73.52
73952;BME280;62304;47.662;18.324;2022-11-06T10:34:30;100583.03;;;11.61;74.49
73952;BME280;62304;47.662;18.324;2022-11-06T10:37:41;100577.31;;;11.54;75.12
73952;BME280;62304;47.662;18.324;2022-11-06T10:40:47;100578.88;;;11.74;74.37
73952;BME280;62304;47.662;18.324;2022-11-06T10:44:04;100566.41;;;11.65;74.22
73952;BME280;62304;47.662;18.324;2022-11-06T10:47:22;100568.25;;;11.80;74.07
73952;BME280;62304;47.662;18.324;2022-11-06T10:50:36;100570.09;;;11.95;73.96
73952;BME280;62304;47.662;18.324;2022-11-06T11:00:39;100558.63;;;11.74;74.69
73952;BME280;62304;47.662;18.324;2022-11-06T11:03:45;100552.03;;;11.85;74.53
73952;BME280;62304;47.662;18.324;2022-11-06T11:06:49;100551.63;;;11.83;74.69
73952;BME280;62304;47.662;18.324;2022-11-06T11:09:52;100546.53;;;11.89;74.43
73952;BME280;62304;47.662;18.324;2022-11-06T11:12:57;100540.00;;;11.78;74.32
73952;BME280;62304;47.662;18.324;2022-11-06T11:16:33;100541.78;;;11.63;74.92
73952;BME280;62304;47.662;18.324;2022-11-06T11:19:38;100539.50;;;11.69;74.91
73952;BME280;62304;47.662;18.324;2022-11-06T11:22:43;100534.72;;;11.69;74.26
73952;BME280;62304;47.662;18.324;2022-11-06T11:25:49;100535.84;;;11.65;75.14
73952;BME280;62304;47.662;18.324;2022-11-06T11:28:57;100532.06;;;11.76;74.74
73952;BME280;62304;47.662;18.324;2022-11-06T11:32:02;100525.75;;;11.79;74.45
73952;BME280;62304;47.662;18.324;2022-11-06T11:35:09;100530.62;;;11.86;73.99
73952;BME280;62304;47.662;18.324;2022-11-06T11:38:14;100530.44;;;12.01;73.77
73952;BME280;62304;47.662;18.324;2022-11-06T11:44:22;100533.47;;;11.89;73.91
73952;BME280;62304;47.662;18.324;2022-11-06T11:47:27;100523.75;;;11.76;74.26
73952;BME280;62304;47.662;18.324;2022-11-06T11:50:31;100539.34;;;11.84;74.44
73952;BME280;62304;47.662;18.324;2022-11-06T11:53:37;100528.44;;;11.72;74.91
73952;BME280;62304;47.662;18.324;2022-11-06T11:57:01;100539.00;;;11.63;75.24
73952;BME280;62304;47.662;18.324;2022-11-06T12:00:14;100538.16;;;11.59;75.42
73952;BME280;62304;47.662;18.324;2022-11-06T12:03:18;100536.84;;;11.53;75.76
73952;BME280;62304;47.662;18.324;2022-11-06T12:06:23;100536.38;;;11.51;75.76
73952;BME280;62304;47.662;18.324;2022-11-06T12:09:27;100543.31;;;11.61;77.18
73952;BME280;62304;47.662;18.324;2022-11-06T12:12:32;100544.25;;;11.68;76.25
73952;BME280;62304;47.662;18.324;2022-11-06T12:15:59;100540.41;;;11.76;76.16
73952;BME280;62304;47.662;18.324;2022-11-06T12:19:03;100537.63;;;11.76;76.35
73952;BME280;62304;47.662;18.324;2022-11-06T12:22:16;100538.91;;;11.82;75.52
73952;BME280;62304;47.662;18.324;2022-11-06T12:25:35;100527.81;;;11.82;75.06
73952;BME280;62304;47.662;18.324;2022-11-06T12:28:41;100532.66;;;11.89;75.70
73952;BME280;62304;47.662;18.324;2022-11-06T12:35:09;100536.13;;;11.82;75.86
73952;BME280;62304;47.662;18.324;2022-11-06T12:38:56;100537.19;;;11.74;76.12
73952;BME280;62304;47.662;18.324;2022-11-06T12:42:03;100531.63;;;12.00;75.95
73952;BME280;62304;47.662;18.324;2022-11-06T12:45:11;100536.47;;;12.03;75.17
73952;BME280;62304;47.662;18.324;2022-11-06T12:48:45;100531.44;;;12.16;74.74
73952;BME280;62304;47.662;18.324;2022-11-06T12:55:45;100526.94;;;12.04;74.70
73952;BME280;62304;47.662;18.324;2022-11-06T12:59:23;100527.22;;;11.96;74.71
73952;BME280;62304;47.662;18.324;2022-11-06T13:06:11;100525.53;;;11.91;75.86
73952;BME280;62304;47.662;18.324;2022-11-06T13:09:34;100525.53;;;11.91;75.39
73952;BME280;62304;47.662;18.324;2022-11-06T13:16:44;100517.88;;;11.81;75.66
73952;BME280;62304;47.662;18.324;2022-11-06T13:20:06;100514.63;;;11.79;75.63
73952;BME280;62304;47.662;18.324;2022-11-06T13:23:24;100529.56;;;11.68;76.04
73952;BME280;62304;47.662;18.324;2022-11-06T13:26:34;100518.72;;;11.59;76.50
73952;BME280;62304;47.662;18.324;2022-11-06T13:29:41;100522.50;;;11.51;76.43
73952;BME280;62304;47.662;18.324;2022-11-06T13:35:58;100520.16;;;11.53;77.76
73952;BME280;62304;47.662;18.324;2022-11-06T13:39:03;100520.03;;;11.69;77.12
73952;BME280;62304;47.662;18.324;2022-11-06T13:42:19;100513.69;;;11.68;77.09
73952;BME280;62304;47.662;18.324;2022-11-06T13:45:23;100513.72;;;11.72;76.49
73952;BME280;62304;47.662;18.324;2022-11-06T13:51:52;100522.81;;;11.69;77.45
73952;BME280;62304;47.662;18.324;2022-11-06T13:55:02;100519.53;;;11.63;78.54
73952;BME280;62304;47.662;18.324;2022-11-06T13:58:23;100524.00;;;11.68;76.74
73952;BME280;62304;47.662;18.324;2022-11-06T14:01:49;100521.16;;;11.64;77.69
73952;BME280;62304;47.662;18.324;2022-11-06T14:11:29;100515.97;;;11.63;77.61
73952;BME280;62304;47.662;18.324;2022-11-06T14:14:33;100520.72;;;11.62;77.11
73952;BME280;62304;47.662;18.324;2022-11-06T14:17:36;100518.22;;;11.57;77.19
73952;BME280;62304;47.662;18.324;2022-11-06T14:20:39;100512.63;;;11.54;76.85
73952;BME280;62304;47.662;18.324;2022-11-06T14:26:48;100511.06;;;11.56;76.89
73952;BME280;62304;47.662;18.324;2022-11-06T14:36:41;100517.88;;;11.14;78.90
73952;BME280;62304;47.662;18.324;2022-11-06T14:42:56;100504.87;;;11.18;79.47
73952;BME280;62304;47.662;18.324;2022-11-06T14:46:03;100499.09;;;11.26;79.50
73952;BME280;62304;47.662;18.324;2022-11-06T14:49:23;100492.16;;;11.17;79.93
73952;BME280;62304;47.662;18.324;2022-11-06T14:52:27;100485.44;;;11.18;80.04
73952;BME280;62304;47.662;18.324;2022-11-06T14:55:42;100487.78;;;11.16;80.20
73952;BME280;62304;47.662;18.324;2022-11-06T14:58:52;100487.25;;;11.07;80.58
73952;BME280;62304;47.662;18.324;2022-11-06T15:02:09;100491.28;;;10.90;80.86
73952;BME280;62304;47.662;18.324;2022-11-06T15:05:16;100482.47;;;10.85;81.28
73952;BME280;62304;47.662;18.324;2022-11-06T15:14:52;100486.81;;;10.63;82.52
73952;BME280;62304;47.662;18.324;2022-11-06T15:17:57;100480.13;;;10.45;83.12
73952;BME280;62304;47.662;18.324;2022-11-06T15:21:03;100478.69;;;10.32;83.65
73952;BME280;62304;47.662;18.324;2022-11-06T15:24:34;100485.66;;;10.26;84.02
73952;BME280;62304;47.662;18.324;2022-11-06T15:27:44;100486.09;;;10.28;84.02
73952;BME280;62304;47.662;18.324;2022-11-06T15:34:14;100477.34;;;10.26;84.56
73952;BME280;62304;47.662;18.324;2022-11-06T15:37:25;100476.69;;;10.33;84.64
73952;BME280;62304;47.662;18.324;2022-11-06T15:40:34;100479.75;;;10.47;84.44
73952;BME280;62304;47.662;18.324;2022-11-06T15:43:37;100483.91;;;10.56;83.59
73952;BME280;62304;47.662;18.324;2022-11-06T15:46:52;100483.75;;;10.68;83.23
73952;BME280;62304;47.662;18.324;2022-11-06T15:50:17;100486.78;;;10.82;83.08
73952;BME280;62304;47.662;18.324;2022-11-06T15:53:23;100486.16;;;10.92;82.30
73952;BME280;62304;47.662;18.324;2022-11-06T15:56:30;100485.75;;;10.90;83.62
73952;BME280;62304;47.662;18.324;2022-11-06T15:59:34;100488.31;;;11.02;82.75
73952;BME280;62304;47.662;18.324;2022-11-06T16:02:58;100493.88;;;11.02;82.57
73952;BME280;62304;47.662;18.324;2022-11-06T16:06:02;100493.88;;;11.02;83.17
73952;BME280;62304;47.662;18.324;2022-11-06T16:09:12;100494.34;;;11.04;83.09
73952;BME280;62304;47.662;18.324;2022-11-06T16:12:17;100501.91;;;11.07;82.78
73952;BME280;62304;47.662;18.324;2022-11-06T16:18:58;100500.16;;;11.22;82.80
73952;BME280;62304;47.662;18.324;2022-11-06T16:22:04;100487.59;;;11.28;82.52
73952;BME280;62304;47.662;18.324;2022-11-06T16:25:16;100497.66;;;11.36;82.62
73952;BME280;62304;47.662;18.324;2022-11-06T16:28:22;100494.97;;;11.43;82.73
73952;BME280;62304;47.662;18.324;2022-11-06T16:31:29;100509.72;;;11.47;82.02
73952;BME280;62304;47.662;18.324;2022-11-06T16:34:38;100523.88;;;11.38;82.92
73952;BME280;62304;47.662;18.324;2022-11-06T16:37:43;100517.72;;;11.48;82.42
73952;BME280;62304;47.662;18.324;2022-11-06T16:40:49;100518.53;;;11.52;82.20
73952;BME280;62304;47.662;18.324;2022-11-06T16:44:22;100520.91;;;11.50;82.37
73952;BME280;62304;47.662;18.324;2022-11-06T16:47:33;100524.84;;;11.49;81.71
73952;BME280;62304;47.662;18.324;2022-11-06T16:50:50;100526.41;;;11.47;81.73
73952;BME280;62304;47.662;18.324;2022-11-06T16:53:59;100529.13;;;11.43;81.92
73952;BME280;62304;47.662;18.324;2022-11-06T16:57:08;100530.22;;;11.39;81.96
73952;BME280;62304;47.662;18.324;2022-11-06T17:03:23;100542.09;;;11.36;82.48
73952;BME280;62304;47.662;18.324;2022-11-06T17:06:30;100545.03;;;11.24;82.58
73952;BME280;62304;47.662;18.324;2022-11-06T17:09:34;100551.03;;;11.26;82.88
73952;BME280;62304;47.662;18.324;2022-11-06T17:12:37;100547.69;;;11.39;82.76
73952;BME280;62304;47.662;18.324;2022-11-06T17:15:43;100553.13;;;11.32;82.65
73952;BME280;62304;47.662;18.324;2022-11-06T17:18:47;100546.56;;;11.44;82.40
73952;BME280;62304;47.662;18.324;2022-11-06T17:21:52;100548.25;;;11.48;82.30
73952;BME280;62304;47.662;18.324;2022-11-06T17:24:56;100547.19;;;11.34;82.10
73952;BME280;62304;47.662;18.324;2022-11-06T17:27:59;100547.12;;;11.30;82.69
73952;BME280;62304;47.662;18.324;2022-11-06T17:31:01;100548.41;;;11.36;82.47
73952;BME280;62304;47.662;18.324;2022-11-06T17:34:05;100542.69;;;11.48;81.79
73952;BME280;62304;47.662;18.324;2022-11-06T17:37:10;100550.47;;;11.39;81.19
73952;BME280;62304;47.662;18.324;2022-11-06T17:40:13;100538.25;;;11.44;81.29
73952;BME280;62304;47.662;18.324;2022-11-06T17:43:17;100533.50;;;11.44;81.29
73952;BME280;62304;47.662;18.324;2022-11-06T17:46:20;100523.78;;;11.57;80.91
73952;BME280;62304;47.662;18.324;2022-11-06T17:49:23;100528.50;;;11.53;80.37
73952;BME280;62304;47.662;18.324;2022-11-06T17:52:27;100526.34;;;11.43;81.07
73952;BME280;62304;47.662;18.324;2022-11-06T17:55:31;100522.38;;;11.44;80.91
73952;BME280;62304;47.662;18.324;2022-11-06T17:58:33;100529.59;;;11.49;81.27
73952;BME280;62304;47.662;18.324;2022-11-06T18:01:36;100535.97;;;11.49;81.53
73952;BME280;62304;47.662;18.324;2022-11-06T18:04:40;100528.81;;;11.48;81.35
73952;BME280;62304;47.662;18.324;2022-11-06T18:07:43;100531.19;;;11.50;81.21
73952;BME280;62304;47.662;18.324;2022-11-06T18:10:52;100521.97;;;11.42;81.27
73952;BME280;62304;47.662;18.324;2022-11-06T18:13:56;100502.69;;;11.30;81.98
73952;BME280;62304;47.662;18.324;2022-11-06T18:17:01;100514.25;;;11.32;82.57
73952;BME280;62304;47.662;18.324;2022-11-06T18:20:05;100502.91;;;11.41;82.22